createdAt,value
2018-10-02T00:01:12.345Z,8.55
2018-10-02T00:03:40.738Z,8.53
2018-10-02T00:06:09.389Z,8.46
2018-10-02T00:08:37.774Z,8.44
2018-10-02T00:11:11.385Z,8.45
2018-10-02T00:13:45.101Z,8.43
2018-10-02T00:16:13.705Z,8.42
2018-10-02T00:18:42.038Z,8.43
2018-10-02T00:21:10.397Z,8.42
2018-10-02T00:23:38.784Z,8.44
2018-10-02T00:26:07.121Z,8.47
2018-10-02T00:28:35.420Z,8.50
2018-10-02T00:31:03.993Z,8.52
2018-10-02T00:33:33.118Z,8.57
2018-10-02T00:36:01.385Z,8.53
2018-10-02T00:38:29.913Z,8.50
2018-10-02T00:40:58.174Z,8.55
2018-10-02T00:43:26.605Z,8.56
2018-10-02T00:45:55.041Z,8.58
2018-10-02T00:48:23.413Z,8.57
2018-10-02T00:50:51.693Z,8.57
2018-10-02T00:53:20.117Z,8.58
2018-10-02T00:55:48.530Z,8.59
2018-10-02T00:58:16.797Z,8.61
2018-10-02T01:00:45.404Z,8.62
2018-10-02T01:03:13.657Z,8.58
2018-10-02T01:05:41.981Z,8.61
2018-10-02T01:08:10.359Z,8.61
2018-10-02T01:10:38.649Z,8.53
2018-10-02T01:13:07.996Z,8.47
2018-10-02T01:15:36.340Z,8.47
2018-10-02T01:18:04.624Z,8.44
2018-10-02T01:20:32.924Z,8.38
2018-10-02T01:23:01.222Z,8.37
2018-10-02T01:25:29.542Z,8.37
2018-10-02T01:27:57.808Z,8.39
2018-10-02T01:30:26.210Z,8.39
2018-10-02T01:32:54.520Z,8.43
2018-10-02T01:35:22.906Z,8.44
2018-10-02T01:37:51.392Z,8.45
2018-10-02T01:40:19.774Z,8.47
2018-10-02T01:42:48.044Z,8.50
2018-10-02T01:45:16.336Z,8.47
2018-10-02T01:47:44.706Z,8.48
2018-10-02T01:50:14.218Z,8.48
2018-10-02T01:52:42.642Z,8.51
2018-10-02T01:55:11.053Z,8.52
2018-10-02T01:57:39.334Z,8.50
2018-10-02T02:00:08.109Z,8.48
2018-10-02T02:02:36.594Z,8.48
2018-10-02T02:05:05.609Z,8.52
2018-10-02T02:07:34.197Z,8.55
2018-10-02T02:10:02.699Z,8.59
2018-10-02T02:12:31.146Z,8.60
2018-10-02T02:14:59.633Z,8.61
2018-10-02T02:17:27.934Z,8.60
2018-10-02T02:19:56.307Z,8.60
2018-10-02T02:22:24.609Z,8.60
2018-10-02T02:24:54.097Z,8.54
2018-10-02T02:27:22.438Z,8.51
2018-10-02T02:29:51.444Z,8.50
2018-10-02T02:32:20.053Z,8.53
2018-10-02T02:34:48.397Z,8.57
2018-10-02T03:03:00.626Z,8.58
2018-10-02T03:05:28.906Z,8.60
2018-10-02T03:07:57.186Z,8.55
2018-10-02T03:10:25.525Z,8.55
2018-10-02T03:12:53.783Z,8.56
2018-10-02T03:15:22.230Z,8.55
2018-10-02T03:17:50.569Z,8.52
2018-10-02T03:20:18.943Z,8.53
2018-10-02T03:22:47.292Z,8.51
2018-10-02T03:25:15.807Z,8.46
2018-10-02T03:27:44.139Z,8.48
2018-10-02T03:30:12.401Z,8.51
2018-10-02T03:32:40.824Z,8.50
2018-10-02T03:35:09.176Z,8.50
2018-10-02T03:37:37.764Z,8.50
2018-10-02T03:40:07.100Z,8.49
2018-10-02T03:42:35.628Z,8.47
2018-10-02T03:45:04.065Z,8.43
2018-10-02T03:47:32.822Z,8.43
2018-10-02T03:50:01.254Z,8.44
2018-10-02T03:52:29.656Z,8.39
2018-10-02T03:54:58.265Z,8.43
2018-10-02T03:57:26.638Z,8.51
2018-10-02T03:59:55.021Z,8.44
2018-10-02T04:02:23.438Z,8.27
2018-10-02T04:04:51.772Z,8.15
2018-10-02T04:07:20.079Z,8.05
2018-10-02T04:09:48.431Z,8.03
2018-10-02T04:12:16.821Z,7.99
2018-10-02T04:14:45.101Z,8.04
2018-10-02T04:17:13.385Z,7.97
2018-10-02T04:19:41.648Z,7.94
2018-10-02T04:22:09.996Z,7.87
2018-10-02T04:24:38.497Z,7.84
2018-10-02T04:27:06.778Z,7.85
2018-10-02T04:29:35.043Z,7.85
2018-10-02T04:32:03.637Z,7.88
2018-10-02T04:34:31.999Z,7.92
2018-10-02T04:37:00.397Z,7.88
2018-10-02T04:39:28.828Z,7.86
2018-10-02T04:41:57.117Z,7.84
2018-10-02T04:44:25.415Z,7.85
2018-10-02T04:46:53.774Z,7.87
2018-10-02T04:49:22.585Z,7.80
2018-10-02T04:51:50.959Z,7.80
2018-10-02T04:54:19.380Z,7.83
2018-10-02T04:56:47.797Z,7.93
2018-10-02T04:59:16.204Z,7.92
2018-10-02T05:01:44.620Z,7.92
2018-10-02T05:04:12.901Z,7.96
2018-10-02T05:06:41.222Z,7.97
2018-10-02T05:09:10.594Z,7.98
2018-10-02T05:11:38.915Z,7.95
2018-10-02T05:14:07.625Z,7.93
2018-10-02T05:16:35.882Z,7.94
2018-10-02T05:19:04.268Z,7.98
2018-10-02T05:21:32.627Z,7.98
2018-10-02T05:24:01.027Z,8.03
2018-10-02T05:26:29.398Z,8.01
2018-10-02T05:28:57.799Z,7.97
2018-10-02T05:31:26.143Z,8.01
2018-10-02T05:33:54.409Z,8.05
2018-10-02T05:36:22.678Z,8.09
2018-10-02T05:38:51.198Z,8.10
2018-10-02T05:41:20.195Z,8.09
2018-10-02T05:43:48.542Z,8.13
2018-10-02T05:46:16.865Z,8.13
2018-10-02T05:48:45.381Z,8.09
2018-10-02T05:51:13.681Z,8.09
2018-10-02T05:53:41.986Z,8.11
2018-10-02T05:56:10.331Z,8.15
2018-10-02T05:58:38.794Z,8.19
2018-10-02T06:01:07.774Z,8.21
2018-10-02T06:03:36.060Z,8.24
2018-10-02T06:06:04.377Z,8.26
2018-10-02T06:08:32.685Z,8.27
2018-10-02T06:11:01.008Z,8.28
2018-10-02T06:13:29.340Z,8.31
2018-10-02T06:15:57.885Z,8.31
2018-10-02T06:18:26.170Z,8.29
2018-10-02T06:20:54.472Z,8.27
2018-10-02T06:23:22.850Z,8.30
2018-10-02T06:25:51.217Z,8.31
2018-10-02T06:28:19.559Z,8.30
2018-10-02T06:30:48.006Z,8.31
2018-10-02T06:33:16.325Z,8.32
2018-10-02T06:35:44.809Z,8.38
2018-10-02T06:38:13.407Z,8.44
2018-10-02T06:40:41.778Z,8.46
2018-10-02T06:43:10.261Z,8.52
2018-10-02T06:45:38.666Z,8.58
2018-10-02T06:48:06.999Z,8.62
2018-10-02T06:50:35.589Z,8.67
2018-10-02T06:53:04.169Z,8.75
2018-10-02T06:55:32.439Z,8.78
2018-10-02T06:58:00.905Z,8.81
2018-10-02T07:00:29.418Z,8.89
2018-10-02T07:02:57.716Z,8.89
2018-10-02T07:05:25.965Z,8.89
2018-10-02T07:07:54.457Z,8.87
2018-10-02T07:10:22.843Z,8.91
2018-10-02T07:12:51.378Z,8.93
2018-10-02T07:15:20.726Z,8.95
2018-10-02T07:17:49.098Z,8.93
2018-10-02T07:20:17.538Z,8.97
2018-10-02T07:22:46.006Z,8.96
2018-10-02T07:25:14.701Z,8.99
2018-10-02T07:27:43.101Z,9.05
2018-10-02T07:30:11.407Z,9.10
2018-10-02T07:32:39.794Z,9.12
2018-10-02T07:35:08.265Z,9.14
2018-10-02T07:37:36.659Z,9.19
2018-10-02T07:40:05.178Z,9.23
2018-10-02T07:42:33.585Z,9.26
2018-10-02T07:45:02.174Z,9.27
2018-10-02T07:47:30.526Z,9.28
2018-10-02T07:49:59.278Z,9.33
2018-10-02T07:52:27.678Z,9.41
2018-10-02T07:54:55.952Z,9.48
2018-10-02T07:57:24.236Z,9.53
2018-10-02T07:59:52.631Z,9.56
2018-10-02T08:02:20.920Z,9.55
2018-10-02T08:04:49.356Z,9.58
2018-10-02T08:07:17.587Z,9.61
2018-10-02T08:09:45.958Z,9.51
2018-10-02T08:12:14.511Z,9.46
2018-10-02T08:14:42.757Z,9.41
2018-10-02T08:17:11.095Z,9.41
2018-10-02T08:19:39.612Z,9.43
2018-10-02T08:22:08.083Z,9.46
2018-10-02T08:24:36.603Z,9.48
2018-10-02T08:27:05.027Z,9.51
2018-10-02T08:29:33.500Z,9.57
2018-10-02T08:32:01.805Z,9.60
2018-10-02T08:34:30.089Z,9.63
2018-10-02T08:36:58.441Z,9.60
2018-10-02T08:39:26.791Z,9.54
2018-10-02T08:41:55.331Z,9.44
2018-10-02T08:44:23.730Z,9.36
2018-10-02T08:46:52.109Z,9.33
2018-10-02T08:49:20.621Z,9.36
2018-10-02T08:51:49.146Z,9.37
2018-10-02T08:54:17.491Z,9.36
2018-10-02T08:56:45.859Z,9.40
2018-10-02T08:59:14.274Z,9.50
2018-10-02T09:01:42.615Z,9.62
2018-10-02T09:04:10.996Z,9.69
2018-10-02T09:06:39.485Z,9.71
2018-10-02T09:09:10.247Z,9.70
2018-10-02T09:11:38.607Z,9.71
2018-10-02T09:14:07.227Z,9.73
2018-10-02T09:16:35.607Z,9.76
2018-10-02T09:19:03.984Z,9.75
2018-10-02T09:21:32.299Z,9.74
2018-10-02T09:24:00.629Z,9.73
2018-10-02T09:26:28.863Z,9.70
2018-10-02T09:28:57.276Z,9.69
2018-10-02T09:31:30.973Z,9.70
2018-10-02T09:34:04.599Z,9.75
2018-10-02T09:36:38.209Z,9.82
2018-10-02T09:39:13.577Z,9.86
2018-10-02T09:41:47.277Z,9.89
2018-10-02T09:44:15.619Z,9.90
2018-10-02T09:46:44.561Z,9.97
2018-10-02T09:49:12.943Z,10.07
2018-10-02T09:51:41.497Z,10.16
2018-10-02T09:54:09.987Z,10.23
2018-10-02T09:56:44.949Z,10.21
2018-10-02T09:59:14.577Z,10.13
2018-10-02T10:01:48.266Z,10.10
2018-10-02T10:04:17.028Z,10.08
2018-10-02T10:06:45.357Z,10.10
2018-10-02T10:09:13.973Z,10.13
2018-10-02T10:11:42.809Z,10.13
2018-10-02T10:14:11.262Z,10.10
2018-10-02T10:16:40.293Z,10.11
2018-10-02T10:19:08.637Z,10.18
2018-10-02T10:21:37.497Z,10.20
2018-10-02T10:24:06.071Z,10.18
2018-10-02T10:26:34.497Z,10.17
2018-10-02T10:29:02.809Z,10.18
2018-10-02T10:31:31.305Z,10.23
2018-10-02T10:34:00.043Z,10.34
2018-10-02T10:36:28.985Z,10.53
2018-10-02T10:38:57.348Z,10.74
2018-10-02T10:41:25.962Z,10.98
2018-10-02T10:43:54.245Z,11.12
2018-10-02T10:46:22.743Z,11.26
2018-10-02T10:48:51.018Z,11.39
2018-10-02T10:51:20.342Z,11.39
2018-10-02T10:53:48.698Z,11.32
2018-10-02T10:56:17.416Z,11.22
2018-10-02T10:58:45.691Z,11.15
2018-10-02T11:01:13.965Z,11.08
2018-10-02T11:03:42.301Z,11.03
2018-10-02T11:06:10.696Z,10.99
2018-10-02T11:08:39.258Z,11.00
2018-10-02T11:11:07.559Z,10.96
2018-10-02T11:13:35.935Z,10.96
2018-10-02T11:16:04.624Z,10.95
2018-10-02T11:18:33.013Z,11.07
2018-10-02T11:21:01.404Z,11.23
2018-10-02T11:23:29.777Z,11.41
2018-10-02T11:25:58.247Z,11.61
2018-10-02T11:28:26.629Z,11.81
2018-10-02T11:30:55.028Z,11.97
2018-10-02T11:33:23.510Z,12.15
2018-10-02T11:35:51.863Z,12.32
2018-10-02T11:38:20.293Z,12.50
2018-10-02T11:40:48.631Z,12.58
2018-10-02T11:43:17.010Z,12.59
2018-10-02T11:45:45.603Z,12.38
2018-10-02T11:48:13.938Z,12.12
2018-10-02T11:50:42.424Z,11.96
2018-10-02T11:53:10.837Z,11.86
2018-10-02T11:55:39.136Z,11.82
2018-10-02T11:58:07.406Z,11.93
2018-10-02T12:00:35.805Z,11.94
2018-10-02T12:03:04.138Z,12.05
2018-10-02T12:05:32.498Z,12.26
2018-10-02T12:08:01.078Z,12.48
2018-10-02T12:10:29.382Z,12.70
2018-10-02T12:12:57.737Z,12.79
2018-10-02T12:15:26.003Z,12.92
2018-10-02T12:17:54.268Z,12.97
2018-10-02T12:20:22.742Z,13.05
2018-10-02T12:22:51.178Z,13.09
2018-10-02T12:25:19.459Z,13.04
2018-10-02T12:27:47.742Z,13.07
2018-10-02T12:30:16.390Z,13.12
2018-10-02T12:32:44.769Z,13.17
2018-10-02T12:35:13.515Z,13.27
2018-10-02T12:37:41.826Z,13.40
2018-10-02T12:40:10.186Z,13.53
2018-10-02T12:42:38.594Z,13.61
2018-10-02T12:45:07.283Z,13.72
2018-10-02T12:47:35.642Z,13.98
2018-10-02T12:50:04.054Z,14.10
2018-10-02T12:52:32.544Z,13.94
2018-10-02T12:55:00.870Z,13.77
2018-10-02T12:57:29.270Z,13.59
2018-10-02T12:59:57.694Z,13.42
2018-10-02T13:02:25.978Z,13.29
2018-10-02T13:04:54.934Z,13.19
2018-10-02T13:07:23.699Z,13.10
2018-10-02T13:09:52.071Z,13.17
2018-10-02T13:12:20.366Z,13.37
2018-10-02T13:14:48.780Z,13.49
2018-10-02T13:17:17.117Z,13.64
2018-10-02T13:19:45.536Z,13.81
2018-10-02T13:22:13.890Z,13.96
2018-10-02T13:24:42.244Z,14.04
2018-10-02T13:27:10.627Z,14.12
2018-10-02T13:29:39.043Z,14.13
2018-10-02T13:32:07.716Z,14.21
2018-10-02T13:34:36.210Z,14.21
2018-10-02T13:37:04.542Z,14.15
2018-10-02T13:39:32.963Z,14.15
2018-10-02T13:42:01.292Z,14.13
2018-10-02T13:44:29.703Z,14.08
2018-10-02T13:46:58.167Z,14.04
2018-10-02T13:49:26.519Z,14.02
2018-10-02T13:51:57.040Z,13.97
2018-10-02T13:54:25.436Z,13.89
2018-10-02T13:56:53.747Z,13.86
2018-10-02T13:59:23.039Z,13.86
2018-10-02T14:01:51.331Z,13.91
2018-10-02T14:04:19.682Z,14.02
2018-10-02T14:06:48.082Z,14.12
2018-10-02T14:09:16.519Z,14.14
2018-10-02T14:11:44.826Z,14.19
2018-10-02T14:14:13.230Z,14.24
2018-10-02T14:16:41.563Z,14.24
2018-10-02T14:19:09.967Z,14.13
2018-10-02T14:21:38.456Z,14.06
2018-10-02T14:24:06.898Z,14.01
2018-10-02T14:26:35.282Z,13.95
2018-10-02T14:29:03.719Z,13.93
2018-10-02T14:31:32.139Z,13.91
2018-10-02T14:34:00.643Z,13.87
2018-10-02T14:36:29.066Z,13.86
2018-10-02T14:38:57.385Z,13.83
2018-10-02T14:41:25.740Z,13.83
2018-10-02T14:43:54.060Z,13.82
2018-10-02T14:46:22.427Z,13.75
2018-10-02T14:48:50.837Z,13.69
2018-10-02T14:51:19.595Z,13.72
2018-10-02T14:53:47.967Z,13.75
2018-10-02T14:56:16.340Z,13.73
2018-10-02T14:58:44.665Z,13.75
2018-10-02T15:01:12.979Z,13.78
2018-10-02T15:03:41.369Z,13.75
2018-10-02T15:06:09.795Z,13.73
2018-10-02T15:08:38.147Z,13.75
2018-10-02T15:11:06.467Z,13.75
2018-10-02T15:13:35.099Z,13.71
2018-10-02T15:16:03.581Z,13.71
2018-10-02T15:18:31.982Z,13.70
2018-10-02T15:21:00.294Z,13.68
2018-10-02T15:23:28.698Z,13.69
2018-10-02T15:25:57.078Z,13.68
2018-10-02T15:28:25.494Z,13.69
2018-10-02T15:30:53.838Z,13.67
2018-10-02T15:33:22.409Z,13.61
2018-10-02T15:35:50.744Z,13.55
2018-10-02T15:38:19.199Z,13.50
2018-10-02T15:40:47.462Z,13.50
2018-10-02T15:43:16.967Z,13.51
2018-10-02T15:45:45.331Z,13.48
2018-10-02T15:48:13.715Z,13.44
2018-10-02T15:50:42.316Z,13.39
2018-10-02T15:53:10.770Z,13.35
2018-10-02T15:55:39.088Z,13.35
2018-10-02T15:58:07.559Z,13.40
2018-10-02T16:00:35.902Z,13.39
2018-10-02T16:03:04.343Z,13.36
2018-10-02T16:05:32.656Z,13.28
2018-10-02T16:08:01.046Z,13.24
2018-10-02T16:10:29.451Z,13.19
2018-10-02T16:12:57.893Z,13.15
2018-10-02T16:15:26.179Z,13.10
2018-10-02T16:17:54.506Z,13.10
2018-10-02T16:20:22.871Z,13.12
2018-10-02T16:22:51.231Z,13.10
2018-10-02T16:25:19.597Z,13.06
2018-10-02T16:27:48.076Z,13.04
2018-10-02T16:30:16.445Z,13.02
2018-10-02T16:32:44.749Z,13.01
2018-10-02T16:35:13.106Z,12.95
2018-10-02T16:37:41.500Z,12.97
2018-10-02T16:40:09.899Z,12.96
2018-10-02T16:42:38.289Z,12.92
2018-10-02T16:45:06.851Z,12.95
2018-10-02T16:47:35.166Z,12.96
2018-10-02T16:50:03.670Z,12.90
2018-10-02T16:52:32.083Z,12.84
2018-10-02T16:55:00.444Z,12.84
2018-10-02T16:57:28.783Z,12.86
2018-10-02T16:59:57.203Z,12.89
2018-10-02T17:02:25.674Z,12.89
2018-10-02T17:04:54.091Z,12.87
2018-10-02T17:07:22.438Z,12.83
2018-10-02T17:09:50.814Z,12.84
2018-10-02T17:12:25.829Z,12.84
2018-10-02T17:14:54.136Z,12.80
2018-10-02T17:17:22.538Z,12.77
2018-10-02T17:19:50.921Z,12.74
2018-10-02T17:22:19.285Z,12.73
2018-10-02T17:24:47.668Z,12.70
2018-10-02T17:27:16.091Z,12.58
2018-10-02T17:29:44.405Z,12.49
2018-10-02T17:32:12.803Z,12.45
2018-10-02T17:34:41.369Z,12.46
2018-10-02T17:37:09.732Z,12.43
2018-10-02T17:39:38.127Z,12.41
2018-10-02T17:42:06.692Z,12.44
2018-10-02T17:44:35.105Z,12.45
2018-10-02T17:47:03.461Z,12.41
2018-10-02T17:49:31.891Z,12.35
2018-10-02T17:52:00.325Z,12.35
2018-10-02T17:54:28.741Z,12.30
2018-10-02T17:56:57.135Z,12.27
2018-10-02T17:59:25.557Z,12.29
2018-10-02T18:01:53.934Z,12.34
2018-10-02T18:04:22.383Z,12.30
2018-10-02T18:06:50.755Z,12.30
2018-10-02T18:09:19.289Z,12.29
2018-10-02T18:11:48.394Z,12.28
2018-10-02T18:14:16.677Z,12.25
2018-10-02T18:16:45.134Z,12.24
2018-10-02T18:19:13.627Z,12.21
2018-10-02T18:21:42.128Z,12.25
2018-10-02T18:24:10.476Z,12.28
2018-10-02T18:26:38.913Z,12.25
2018-10-02T18:29:07.243Z,12.24
2018-10-02T18:31:35.824Z,12.25
2018-10-02T18:34:04.258Z,12.30
2018-10-02T18:36:32.685Z,12.34
2018-10-02T18:39:00.993Z,12.36
2018-10-02T18:41:29.447Z,12.34
2018-10-02T18:43:57.819Z,12.33
2018-10-02T18:46:26.280Z,12.32
2018-10-02T18:48:54.970Z,12.30
2018-10-02T18:51:23.342Z,12.27
2018-10-02T18:53:51.734Z,12.24
2018-10-02T18:56:20.301Z,12.20
2018-10-02T18:58:48.482Z,12.19
2018-10-02T19:01:16.970Z,12.13
2018-10-02T19:03:45.514Z,12.09
2018-10-02T19:06:14.038Z,12.08
2018-10-02T19:08:47.803Z,12.03
2018-10-02T19:11:21.420Z,11.95
2018-10-02T19:13:50.506Z,11.87
2018-10-02T19:16:24.254Z,11.91
2018-10-02T19:18:52.835Z,11.91
2018-10-02T19:21:21.106Z,11.91
2018-10-02T19:23:49.593Z,11.92
2018-10-02T19:26:20.530Z,11.94
2018-10-02T19:28:49.244Z,11.95
2018-10-02T19:31:23.050Z,11.94
2018-10-02T19:33:51.538Z,11.92
2018-10-02T19:36:19.842Z,11.87
2018-10-02T19:38:55.722Z,11.87
2018-10-02T19:41:24.190Z,11.85
2018-10-02T19:43:52.662Z,11.85
2018-10-02T19:46:21.346Z,11.85
2018-10-02T19:48:49.624Z,11.85
2018-10-02T19:51:23.346Z,11.85
2018-10-02T19:53:51.818Z,11.87
2018-10-02T19:56:22.242Z,11.89
2018-10-02T19:58:51.152Z,11.91
2018-10-02T20:01:19.539Z,11.91
2018-10-02T20:03:48.035Z,11.92
2018-10-02T20:06:16.406Z,11.93
2018-10-02T20:08:44.692Z,11.96
2018-10-02T20:11:12.982Z,11.96
2018-10-02T20:13:41.767Z,11.96
2018-10-02T20:16:10.190Z,11.94
2018-10-02T20:18:38.584Z,11.92
2018-10-02T20:21:07.318Z,11.90
2018-10-02T20:23:35.730Z,11.90
2018-10-02T20:26:04.147Z,11.90
2018-10-02T20:28:32.527Z,11.92
2018-10-02T20:31:00.883Z,11.93
2018-10-02T20:33:29.289Z,11.93
2018-10-02T20:35:57.751Z,11.92
2018-10-02T20:38:26.144Z,11.92
2018-10-02T20:40:54.499Z,11.91
2018-10-02T20:43:23.094Z,11.90
2018-10-02T20:45:51.502Z,11.90
2018-10-02T20:48:19.847Z,11.88
2018-10-02T20:50:48.237Z,11.86
2018-10-02T20:53:17.376Z,11.83
2018-10-02T20:55:45.859Z,11.83
2018-10-02T20:58:14.327Z,11.82
2018-10-02T21:00:42.646Z,11.82
2018-10-02T21:03:11.027Z,11.80
2018-10-02T21:05:39.527Z,11.81
2018-10-02T21:08:07.877Z,11.80
2018-10-02T21:10:36.267Z,11.78
2018-10-02T21:13:04.678Z,11.74
2018-10-02T21:15:33.189Z,11.70
2018-10-02T21:18:01.416Z,11.66
2018-10-02T21:20:29.820Z,11.63
2018-10-02T21:22:58.231Z,11.60
2018-10-02T21:25:26.853Z,11.53
2018-10-02T21:27:55.441Z,11.51
2018-10-02T21:30:23.827Z,11.50
2018-10-02T21:32:52.183Z,11.48
2018-10-02T21:35:20.591Z,11.47
2018-10-02T21:37:48.898Z,11.44
2018-10-02T21:40:17.400Z,11.42
2018-10-02T21:42:45.625Z,11.40
2018-10-02T21:45:13.944Z,11.41
2018-10-02T21:47:42.483Z,11.41
2018-10-02T21:50:10.869Z,11.44
2018-10-02T21:52:39.209Z,11.44
2018-10-02T21:55:07.715Z,11.45
2018-10-02T21:57:36.311Z,11.46
2018-10-02T22:00:05.768Z,11.43
2018-10-02T22:02:34.029Z,11.39
2018-10-02T22:05:02.369Z,11.37
2018-10-02T22:07:30.813Z,11.34
2018-10-02T22:09:59.090Z,11.34
2018-10-02T22:12:29.287Z,11.31
2018-10-02T22:14:57.598Z,11.29
2018-10-02T22:17:26.095Z,11.29
2018-10-02T22:19:54.437Z,11.26
2018-10-02T22:22:22.843Z,11.24
2018-10-02T22:24:51.121Z,11.24
2018-10-02T22:27:19.533Z,11.22
2018-10-02T22:29:47.913Z,11.22
2018-10-02T22:32:16.333Z,11.23
2018-10-02T22:34:44.709Z,11.23
2018-10-02T22:37:13.101Z,11.21
2018-10-02T22:39:41.451Z,11.18
2018-10-02T22:42:09.971Z,11.17
2018-10-02T22:44:38.247Z,11.15
2018-10-02T22:47:06.613Z,11.13
2018-10-02T22:49:35.099Z,11.14
2018-10-02T22:52:04.543Z,11.19
2018-10-02T22:54:33.153Z,11.20
2018-10-02T22:57:01.497Z,11.18
2018-10-02T22:59:29.881Z,11.19
2018-10-02T23:01:58.157Z,11.17
2018-10-02T23:04:26.522Z,11.16
2018-10-02T23:06:54.955Z,11.18
2018-10-02T23:09:23.410Z,11.19
2018-10-02T23:11:51.721Z,11.16
2018-10-02T23:14:20.097Z,11.16
2018-10-02T23:16:48.495Z,11.16
2018-10-02T23:19:17.081Z,11.16
2018-10-02T23:21:45.367Z,11.16
2018-10-02T23:24:13.631Z,11.16
2018-10-02T23:26:41.955Z,11.15
2018-10-02T23:29:10.686Z,11.15
2018-10-02T23:31:39.047Z,11.17
2018-10-02T23:34:07.495Z,11.21
2018-10-02T23:36:35.775Z,11.20
2018-10-02T23:39:05.431Z,11.20
2018-10-02T23:41:33.834Z,11.21
2018-10-02T23:44:02.104Z,11.25
2018-10-02T23:46:30.526Z,11.29
2018-10-02T23:48:58.863Z,11.28
2018-10-02T23:51:27.334Z,11.31
2018-10-02T23:53:55.978Z,11.32
2018-10-02T23:56:24.450Z,11.36
2018-10-02T23:58:52.937Z,11.36
